Time;durP1;ratioP1;P1;durP2;ratioP2;P2;SDS_P1;SDS_P2;PMS_P1;PMS_P2;Temp;Humidity;BMP_temperature;BMP_pressure;BME280_temperature;BME280_humidity;BME280_pressure;Samples;Min_cycle;Max_cycle;Signal;HPM_P1;HPM_P2
2022/09/18 00:01:29;;;;;;;0.10;0.10;;;;;;;;;;5025118;28;20071;-68
2022/09/18 00:03:59;;;;;;;0.20;0.13;;;;;;;;;;5020497;28;20455;-68
2022/09/18 00:06:29;;;;;;;0.10;0.10;;;;;;;;;;5025505;28;20512;-68
2022/09/18 00:08:58;;;;;;;0.10;0.10;;;;;;;;;;5022927;28;20041;-68
2022/09/18 00:11:29;;;;;;;0.10;0.10;;;;;;;;;;5023175;28;20417;-68
2022/09/18 00:13:57;;;;;;;0.20;0.20;;;;;;;;;;5021027;28;20441;-68
2022/09/18 00:16:26;;;;;;;1.02;0.32;;;;;;;;;;5020857;28;20064;-68
2022/09/18 00:18:54;;;;;;;4.45;0.25;;;;;;;;;;5022444;28;20041;-68
2022/09/18 00:21:24;;;;;;;1.70;0.30;;;;;;;;;;5024121;28;20612;-68
2022/09/18 00:23:53;;;;;;;0.10;0.10;;;;;;;;;;5020321;28;20046;-70
2022/09/18 00:26:21;;;;;;;0.08;0.08;;;;;;;;;;5019296;28;20068;-68
2022/09/18 00:28:52;;;;;;;0.10;0.10;;;;;;;;;;5025184;28;20176;-68
2022/09/18 00:31:21;;;;;;;16.13;0.32;;;;;;;;;;5026260;28;20056;-68
2022/09/18 00:33:49;;;;;;;0.10;0.10;;;;;;;;;;5025045;28;20072;-67
2022/09/18 00:36:18;;;;;;;0.10;0.10;;;;;;;;;;5020756;28;20375;-67
2022/09/18 00:38:46;;;;;;;0.20;0.20;;;;;;;;;;5022214;28;20042;-68
2022/09/18 00:41:16;;;;;;;0.55;0.20;;;;;;;;;;5027675;28;20056;-67
2022/09/18 00:43:44;;;;;;;0.13;0.13;;;;;;;;;;5024991;28;20405;-67
2022/09/18 00:46:19;;;;;;;0.10;0.10;;;;;;;;;;5027606;28;20063;-68
2022/09/18 00:48:56;;;;;;;0.50;0.20;;;;;;;;;;5025690;28;20045;-68
2022/09/18 00:51:25;;;;;;;0.28;0.28;;;;;;;;;;5026210;28;20068;-68
2022/09/18 00:53:57;;;;;;;0.20;0.20;;;;;;;;;;5028258;28;22849;-68
2022/09/18 00:56:26;;;;;;;0.38;0.38;;;;;;;;;;5016641;28;20063;-68
2022/09/18 00:58:54;;;;;;;0.20;0.20;;;;;;;;;;5029324;28;20344;-68
2022/09/18 01:01:25;;;;;;;0.22;0.20;;;;;;;;;;5025616;28;20068;-71
2022/09/18 01:03:53;;;;;;;3.53;0.20;;;;;;;;;;5017451;28;20392;-68
2022/09/18 01:06:24;;;;;;;0.70;0.25;;;;;;;;;;5028015;28;20424;-68
2022/09/18 01:09:00;;;;;;;0.30;0.08;;;;;;;;;;5026705;28;20518;-69
2022/09/18 01:11:32;;;;;;;0.05;0.05;;;;;;;;;;5022540;28;20052;-68
2022/09/18 01:14:08;;;;;;;0.00;0.00;;;;;;;;;;5021033;28;20049;-68
2022/09/18 01:16:44;;;;;;;0.10;0.10;;;;;;;;;;5021085;28;20065;-68
2022/09/18 01:19:20;;;;;;;0.25;0.25;;;;;;;;;;5025685;28;20069;-68
2022/09/18 01:21:55;;;;;;;0.10;0.10;;;;;;;;;;5023163;28;20122;-69
2022/09/18 01:24:34;;;;;;;0.10;0.10;;;;;;;;;;5016157;28;20128;-68
2022/09/18 01:27:04;;;;;;;0.17;0.17;;;;;;;;;;5022641;28;20045;-68
2022/09/18 01:29:41;;;;;;;1.00;0.82;;;;;;;;;;5022670;28;20054;-68
2022/09/18 01:32:14;;;;;;;0.38;0.17;;;;;;;;;;5014398;28;20061;-69
2022/09/18 01:34:46;;;;;;;0.20;0.20;;;;;;;;;;5014665;28;20049;-68
2022/09/18 01:37:19;;;;;;;0.20;0.20;;;;;;;;;;5022464;28;20080;-67
2022/09/18 01:39:51;;;;;;;0.10;0.10;;;;;;;;;;5023137;28;20069;-68
2022/09/18 01:42:22;;;;;;;5.38;0.25;;;;;;;;;;5027468;28;20057;-68
2022/09/18 01:44:57;;;;;;;0.10;0.10;;;;;;;;;;5026755;28;20049;-67
2022/09/18 01:47:28;;;;;;;0.10;0.10;;;;;;;;;;5024344;28;20054;-67
2022/09/18 01:49:58;;;;;;;0.40;0.35;;;;;;;;;;5029539;28;20420;-67
2022/09/18 01:52:28;;;;;;;0.20;0.20;;;;;;;;;;5018362;28;20049;-68
2022/09/18 01:54:58;;;;;;;0.20;0.20;;;;;;;;;;5017596;28;20434;-67
2022/09/18 01:57:28;;;;;;;0.10;0.10;;;;;;;;;;5022618;28;20360;-67
2022/09/18 02:00:00;;;;;;;0.10;0.10;;;;;;;;;;5024644;28;20048;-68
2022/09/18 02:02:31;;;;;;;0.30;0.30;;;;;;;;;;5019122;28;20054;-67
2022/09/18 02:05:00;;;;;;;0.10;0.10;;;;;;;;;;5022805;28;20052;-66
2022/09/18 02:07:31;;;;;;;5.05;0.20;;;;;;;;;;5026340;28;20057;-67
2022/09/18 02:09:59;;;;;;;0.10;0.10;;;;;;;;;;5022640;28;20373;-68
2022/09/18 02:12:29;;;;;;;0.73;0.50;;;;;;;;;;5023167;28;20046;-67
2022/09/18 02:15:04;;;;;;;0.10;0.10;;;;;;;;;;5020085;28;20409;-66
2022/09/18 02:17:34;;;;;;;0.73;0.30;;;;;;;;;;5025669;28;20050;-68
2022/09/18 02:20:06;;;;;;;0.08;0.08;;;;;;;;;;5026023;28;20053;-66
2022/09/18 02:22:35;;;;;;;0.10;0.10;;;;;;;;;;5024910;28;20054;-68
2022/09/18 02:25:06;;;;;;;0.10;0.10;;;;;;;;;;5025186;28;20045;-67
2022/09/18 02:27:36;;;;;;;0.28;0.28;;;;;;;;;;5024104;28;20046;-67
2022/09/18 02:30:07;;;;;;;0.10;0.10;;;;;;;;;;5016124;28;20057;-67
2022/09/18 02:32:36;;;;;;;1.13;0.30;;;;;;;;;;5021866;28;20042;-66
2022/09/18 02:35:05;;;;;;;4.55;0.50;;;;;;;;;;5025076;28;20489;-65
2022/09/18 02:37:37;;;;;;;0.30;0.30;;;;;;;;;;5024526;28;20053;-66
2022/09/18 02:40:14;;;;;;;0.28;0.22;;;;;;;;;;5023382;28;20061;-68
2022/09/18 02:42:44;;;;;;;0.45;0.45;;;;;;;;;;5024375;28;20477;-66
2022/09/18 02:45:20;;;;;;;0.47;0.20;;;;;;;;;;5023382;28;20042;-68
2022/09/18 02:47:55;;;;;;;0.28;0.15;;;;;;;;;;5022269;28;20429;-67
2022/09/18 02:50:28;;;;;;;0.10;0.10;;;;;;;;;;5025312;28;20041;-67
2022/09/18 02:53:02;;;;;;;0.63;0.30;;;;;;;;;;5022809;28;20125;-67
2022/09/18 02:55:36;;;;;;;0.45;0.30;;;;;;;;;;5021904;28;20057;-67
2022/09/18 02:58:05;;;;;;;0.10;0.10;;;;;;;;;;5024042;28;20049;-66
2022/09/18 03:00:37;;;;;;;0.30;0.30;;;;;;;;;;5028360;28;20108;-66
2022/09/18 03:03:05;;;;;;;0.28;0.28;;;;;;;;;;5016445;28;20056;-67
2022/09/18 03:05:33;;;;;;;0.20;0.20;;;;;;;;;;5022293;28;20516;-68
2022/09/18 03:08:02;;;;;;;0.10;0.10;;;;;;;;;;5020273;28;20046;-67
2022/09/18 03:10:31;;;;;;;0.30;0.25;;;;;;;;;;5022987;28;20050;-67
2022/09/18 03:13:00;;;;;;;0.10;0.10;;;;;;;;;;5029855;28;20073;-67
2022/09/18 03:15:28;;;;;;;0.13;0.13;;;;;;;;;;5024625;28;20505;-69
2022/09/18 03:17:58;;;;;;;0.20;0.20;;;;;;;;;;5022796;28;20041;-68
2022/09/18 03:20:26;;;;;;;0.52;0.52;;;;;;;;;;5023671;28;20045;-66
2022/09/18 03:22:54;;;;;;;0.30;0.30;;;;;;;;;;5027094;28;20041;-66
2022/09/18 03:25:22;;;;;;;0.20;0.20;;;;;;;;;;5023916;28;20061;-70
2022/09/18 03:27:54;;;;;;;0.00;0.00;;;;;;;;;;5017383;28;20054;-67
2022/09/18 03:30:23;;;;;;;0.30;0.30;;;;;;;;;;5018763;28;20050;-68
2022/09/18 03:32:52;;;;;;;0.22;0.17;;;;;;;;;;5027388;28;20050;-66
2022/09/18 03:35:22;;;;;;;1.88;0.20;;;;;;;;;;5025027;28;20060;-66
2022/09/18 03:37:50;;;;;;;0.10;0.10;;;;;;;;;;5022673;28;20495;-66
2022/09/18 03:40:18;;;;;;;0.75;0.30;;;;;;;;;;5023356;28;20556;-70
2022/09/18 03:42:47;;;;;;;0.10;0.10;;;;;;;;;;5016082;28;20104;-66
2022/09/18 03:45:15;;;;;;;1.00;0.73;;;;;;;;;;5023098;28;20055;-67
2022/09/18 03:47:43;;;;;;;0.20;0.20;;;;;;;;;;5023640;28;20050;-66
2022/09/18 03:50:12;;;;;;;0.20;0.20;;;;;;;;;;5021183;28;20053;-66
2022/09/18 03:52:42;;;;;;;0.13;0.13;;;;;;;;;;5016062;28;20061;-69
2022/09/18 03:55:15;;;;;;;0.08;0.08;;;;;;;;;;5015555;28;20046;-66
2022/09/18 03:57:43;;;;;;;1.00;0.85;;;;;;;;;;5024117;28;20042;-67
2022/09/18 04:00:12;;;;;;;0.30;0.30;;;;;;;;;;5021950;28;20050;-66
2022/09/18 04:02:41;;;;;;;0.10;0.10;;;;;;;;;;5026163;28;20049;-68
2022/09/18 04:05:10;;;;;;;0.30;0.30;;;;;;;;;;5017704;28;20103;-68
2022/09/18 04:07:39;;;;;;;0.10;0.08;;;;;;;;;;5018457;28;20049;-69
2022/09/18 04:10:09;;;;;;;0.85;0.25;;;;;;;;;;5028429;28;20116;-67
2022/09/18 04:12:37;;;;;;;0.43;0.43;;;;;;;;;;5023253;28;20045;-66
2022/09/18 04:15:08;;;;;;;0.57;0.35;;;;;;;;;;5021901;28;20054;-66
2022/09/18 04:17:38;;;;;;;0.43;0.30;;;;;;;;;;5026193;28;20060;-68
2022/09/18 04:20:07;;;;;;;0.35;0.35;;;;;;;;;;5027744;28;20046;-65
2022/09/18 04:22:35;;;;;;;0.20;0.20;;;;;;;;;;5015069;28;20058;-66
2022/09/18 04:25:04;;;;;;;1.00;0.43;;;;;;;;;;5025490;28;20085;-67
2022/09/18 04:27:35;;;;;;;0.15;0.15;;;;;;;;;;5017197;28;20052;-66
2022/09/18 04:30:03;;;;;;;8.10;0.45;;;;;;;;;;5031654;28;20530;-66
2022/09/18 04:32:32;;;;;;;0.98;0.35;;;;;;;;;;5022224;28;20065;-66
2022/09/18 04:35:00;;;;;;;0.40;0.30;;;;;;;;;;5029533;28;20049;-68
2022/09/18 04:37:28;;;;;;;0.10;0.10;;;;;;;;;;5023244;28;20053;-68
2022/09/18 04:39:57;;;;;;;2.22;0.50;;;;;;;;;;5024259;28;20042;-66
2022/09/18 04:42:25;;;;;;;0.20;0.20;;;;;;;;;;5024916;28;20156;-67
2022/09/18 04:44:54;;;;;;;0.95;0.43;;;;;;;;;;5020146;28;20042;-68
2022/09/18 04:47:23;;;;;;;0.10;0.10;;;;;;;;;;5028436;28;20418;-73
2022/09/18 04:49:51;;;;;;;0.20;0.20;;;;;;;;;;5028564;28;20780;-65
2022/09/18 04:52:19;;;;;;;0.25;0.22;;;;;;;;;;5025680;28;20042;-71
2022/09/18 04:54:47;;;;;;;0.15;0.15;;;;;;;;;;5019948;28;20060;-66
2022/09/18 04:57:16;;;;;;;0.20;0.10;;;;;;;;;;5030315;28;20489;-69
2022/09/18 04:59:44;;;;;;;0.38;0.38;;;;;;;;;;5027020;28;20085;-66
2022/09/18 05:02:14;;;;;;;0.28;0.28;;;;;;;;;;5025510;28;20224;-71
2022/09/18 05:04:42;;;;;;;0.30;0.30;;;;;;;;;;5026054;28;20704;-65
2022/09/18 05:07:11;;;;;;;1.08;0.30;;;;;;;;;;5026531;28;20054;-68
2022/09/18 05:09:39;;;;;;;0.20;0.20;;;;;;;;;;5024966;28;20045;-66
2022/09/18 05:12:08;;;;;;;1.52;0.30;;;;;;;;;;5025878;28;20045;-67
2022/09/18 05:14:37;;;;;;;0.00;0.00;;;;;;;;;;5029641;28;20053;-66
2022/09/18 05:17:05;;;;;;;0.20;0.20;;;;;;;;;;5026940;28;20815;-65
2022/09/18 05:19:34;;;;;;;0.98;0.95;;;;;;;;;;5027070;28;20046;-66
2022/09/18 05:22:04;;;;;;;0.10;0.10;;;;;;;;;;5030007;28;20327;-66
2022/09/18 05:24:32;;;;;;;0.30;0.25;;;;;;;;;;5026384;28;20060;-66
2022/09/18 05:27:00;;;;;;;0.20;0.20;;;;;;;;;;5026471;28;20053;-71
2022/09/18 05:29:29;;;;;;;0.10;0.08;;;;;;;;;;5023435;28;20057;-67
2022/09/18 05:31:57;;;;;;;6.72;0.32;;;;;;;;;;5028128;28;20056;-67
2022/09/18 05:34:25;;;;;;;0.47;0.30;;;;;;;;;;5028571;28;20100;-68
2022/09/18 05:36:55;;;;;;;0.40;0.30;;;;;;;;;;5027575;28;20038;-67
2022/09/18 05:39:23;;;;;;;0.25;0.25;;;;;;;;;;5024702;28;20050;-68
2022/09/18 05:41:51;;;;;;;1.45;0.40;;;;;;;;;;5028717;28;20462;-67
2022/09/18 05:44:20;;;;;;;0.10;0.10;;;;;;;;;;5019651;28;20056;-69
2022/09/18 05:46:48;;;;;;;4.38;0.45;;;;;;;;;;5023638;28;20049;-73
2022/09/18 05:49:17;;;;;;;0.25;0.25;;;;;;;;;;5021263;28;20780;-66
2022/09/18 05:51:45;;;;;;;0.30;0.25;;;;;;;;;;5020661;28;20417;-66
2022/09/18 05:54:15;;;;;;;0.68;0.22;;;;;;;;;;5024964;28;20516;-66
2022/09/18 05:56:43;;;;;;;0.40;0.40;;;;;;;;;;5024740;28;20053;-69
2022/09/18 05:59:11;;;;;;;2.78;0.40;;;;;;;;;;5026585;28;20051;-69
2022/09/18 06:01:40;;;;;;;0.22;0.22;;;;;;;;;;5029942;28;20537;-69
2022/09/18 06:04:14;;;;;;;0.67;0.57;;;;;;;;;;5027108;28;20046;-67
2022/09/18 06:06:42;;;;;;;2.00;0.47;;;;;;;;;;5030211;28;20304;-69
2022/09/18 06:09:10;;;;;;;0.40;0.40;;;;;;;;;;5023087;28;20374;-72
2022/09/18 06:11:40;;;;;;;6.90;0.43;;;;;;;;;;5021689;28;20296;-67
2022/09/18 06:14:11;;;;;;;1.58;0.43;;;;;;;;;;5020041;28;20068;-75
2022/09/18 06:16:40;;;;;;;0.90;0.28;;;;;;;;;;5016814;28;20050;-73
2022/09/18 06:19:09;;;;;;;0.15;0.15;;;;;;;;;;5009835;28;20054;-67
2022/09/18 06:21:38;;;;;;;0.28;0.28;;;;;;;;;;5019545;28;20048;-67
2022/09/18 06:24:08;;;;;;;0.10;0.10;;;;;;;;;;5019735;28;20049;-66
2022/09/18 06:26:37;;;;;;;0.40;0.40;;;;;;;;;;5022119;28;20566;-68
2022/09/18 06:29:06;;;;;;;0.20;0.20;;;;;;;;;;5019629;28;20044;-66
2022/09/18 06:31:34;;;;;;;0.30;0.30;;;;;;;;;;5014560;28;20049;-67
2022/09/18 06:34:03;;;;;;;6.78;0.30;;;;;;;;;;5019734;28;20132;-66
2022/09/18 06:36:31;;;;;;;0.63;0.43;;;;;;;;;;5012820;28;20092;-68
2022/09/18 06:39:00;;;;;;;0.10;0.10;;;;;;;;;;5020922;28;20052;-70
2022/09/18 06:41:28;;;;;;;1.30;0.45;;;;;;;;;;5020180;28;20538;-70
2022/09/18 06:43:56;;;;;;;0.40;0.40;;;;;;;;;;5017257;28;20046;-68
2022/09/18 06:46:26;;;;;;;0.25;0.25;;;;;;;;;;5019258;28;20428;-66
2022/09/18 06:48:54;;;;;;;0.20;0.20;;;;;;;;;;5018603;28;20569;-67
2022/09/18 06:51:23;;;;;;;0.30;0.30;;;;;;;;;;5021329;28;20056;-73
2022/09/18 06:53:51;;;;;;;0.08;0.08;;;;;;;;;;5019140;28;20052;-68
2022/09/18 06:56:21;;;;;;;0.38;0.25;;;;;;;;;;5018961;28;20049;-70
2022/09/18 06:58:53;;;;;;;0.20;0.20;;;;;;;;;;5013416;28;20045;-68
2022/09/18 07:01:21;;;;;;;0.17;0.17;;;;;;;;;;5018621;28;20080;-68
2022/09/18 07:03:51;;;;;;;0.13;0.13;;;;;;;;;;5015109;28;20565;-71
2022/09/18 07:06:20;;;;;;;0.38;0.22;;;;;;;;;;5011378;28;20060;-69
2022/09/18 07:08:48;;;;;;;0.60;0.30;;;;;;;;;;5013834;28;20053;-68
2022/09/18 07:11:16;;;;;;;0.10;0.10;;;;;;;;;;5010473;28;20053;-69
2022/09/18 07:13:46;;;;;;;1.75;0.50;;;;;;;;;;5014465;28;20037;-67
2022/09/18 07:16:14;;;;;;;0.50;0.22;;;;;;;;;;5021010;28;20071;-71
2022/09/18 07:18:42;;;;;;;0.50;0.50;;;;;;;;;;5016423;28;20058;-68
2022/09/18 07:21:12;;;;;;;0.10;0.10;;;;;;;;;;5017003;28;20042;-69
2022/09/18 07:23:40;;;;;;;0.20;0.20;;;;;;;;;;5014938;28;20046;-70
2022/09/18 07:26:09;;;;;;;0.43;0.43;;;;;;;;;;5019072;28;20057;-70
2022/09/18 07:28:37;;;;;;;0.35;0.30;;;;;;;;;;5010152;28;20449;-68
2022/09/18 07:31:06;;;;;;;0.63;0.30;;;;;;;;;;5019287;28;20323;-66
2022/09/18 07:33:36;;;;;;;0.08;0.08;;;;;;;;;;5017549;28;20344;-67
2022/09/18 07:36:05;;;;;;;0.30;0.20;;;;;;;;;;5019439;28;20056;-68
2022/09/18 07:38:35;;;;;;;0.55;0.30;;;;;;;;;;5016763;28;20416;-68
2022/09/18 07:41:03;;;;;;;0.20;0.20;;;;;;;;;;5016046;28;20136;-69
2022/09/18 07:43:32;;;;;;;1.05;0.30;;;;;;;;;;5021300;28;20549;-67
2022/09/18 07:46:01;;;;;;;0.63;0.22;;;;;;;;;;5015534;28;20609;-67
2022/09/18 07:48:29;;;;;;;0.20;0.20;;;;;;;;;;5011476;28;20065;-69
2022/09/18 07:50:59;;;;;;;0.10;0.10;;;;;;;;;;5023371;28;20069;-69
2022/09/18 07:53:28;;;;;;;0.20;0.20;;;;;;;;;;5021372;28;20064;-68
2022/09/18 07:55:58;;;;;;;0.00;0.00;;;;;;;;;;5018902;28;20077;-68
2022/09/18 07:58:26;;;;;;;0.45;0.45;;;;;;;;;;5016149;28;20045;-68
2022/09/18 08:00:56;;;;;;;0.13;0.13;;;;;;;;;;5020263;28;20049;-70
2022/09/18 08:03:25;;;;;;;6.40;0.43;;;;;;;;;;5017268;28;20541;-70
2022/09/18 08:05:53;;;;;;;0.20;0.20;;;;;;;;;;5013710;28;20049;-70
2022/09/18 08:08:22;;;;;;;0.17;0.17;;;;;;;;;;5016137;28;20042;-67
2022/09/18 08:10:50;;;;;;;0.10;0.10;;;;;;;;;;5022172;28;20045;-73
2022/09/18 08:13:20;;;;;;;0.10;0.10;;;;;;;;;;5018699;28;20049;-72
2022/09/18 08:15:49;;;;;;;0.30;0.30;;;;;;;;;;5020067;28;20489;-70
2022/09/18 08:18:18;;;;;;;0.30;0.30;;;;;;;;;;5020950;28;20042;-68
2022/09/18 08:20:46;;;;;;;0.20;0.20;;;;;;;;;;5014969;28;20042;-69
2022/09/18 08:23:16;;;;;;;4.47;0.60;;;;;;;;;;5016818;28;20520;-68
2022/09/18 08:25:46;;;;;;;1.55;0.40;;;;;;;;;;5020841;28;20157;-68
2022/09/18 08:28:14;;;;;;;0.75;0.40;;;;;;;;;;5024677;28;20050;-70
2022/09/18 08:30:44;;;;;;;0.20;0.20;;;;;;;;;;5019231;28;20054;-68
2022/09/18 08:33:12;;;;;;;0.40;0.40;;;;;;;;;;5022820;28;20058;-70
2022/09/18 08:35:41;;;;;;;0.60;0.25;;;;;;;;;;5016917;28;20061;-69
2022/09/18 08:38:10;;;;;;;0.20;0.20;;;;;;;;;;5019742;28;20057;-67
2022/09/18 08:40:46;;;;;;;0.20;0.20;;;;;;;;;;5017930;28;20042;-71
2022/09/18 08:43:18;;;;;;;0.20;0.20;;;;;;;;;;5014683;28;20041;-70
2022/09/18 08:45:52;;;;;;;0.20;0.20;;;;;;;;;;5014961;28;20057;-69
2022/09/18 08:48:23;;;;;;;0.40;0.35;;;;;;;;;;5021254;28;20480;-68
2022/09/18 08:50:59;;;;;;;0.20;0.20;;;;;;;;;;5015238;28;20453;-69
2022/09/18 08:53:31;;;;;;;0.10;0.10;;;;;;;;;;5023860;28;20045;-69
2022/09/18 08:56:00;;;;;;;0.10;0.10;;;;;;;;;;5011786;28;20057;-68
2022/09/18 08:58:31;;;;;;;0.20;0.20;;;;;;;;;;5020586;28;20049;-70
2022/09/18 09:01:03;;;;;;;0.50;0.20;;;;;;;;;;5023323;28;20056;-68
2022/09/18 09:03:35;;;;;;;0.50;0.22;;;;;;;;;;5014133;28;20061;-68
2022/09/18 09:06:08;;;;;;;0.25;0.25;;;;;;;;;;5016016;28;20580;-70
2022/09/18 09:08:44;;;;;;;0.17;0.17;;;;;;;;;;5019277;28;20061;-69
2022/09/18 09:11:16;;;;;;;0.17;0.17;;;;;;;;;;5027167;28;20050;-70
2022/09/18 09:14:01;;;;;;;0.10;0.10;;;;;;;;;;5023357;28;20050;-69
2022/09/18 09:16:51;;;;;;;0.10;0.10;;;;;;;;;;5022939;28;20084;-69
2022/09/18 09:19:27;;;;;;;0.28;0.22;;;;;;;;;;5015419;28;20050;-70
2022/09/18 09:22:00;;;;;;;4.65;0.43;;;;;;;;;;5023608;28;20052;-70
2022/09/18 09:24:31;;;;;;;0.10;0.10;;;;;;;;;;5013689;28;20498;-69
2022/09/18 09:27:02;;;;;;;1.67;0.60;;;;;;;;;;5013822;28;20061;-72
2022/09/18 09:29:32;;;;;;;0.43;0.22;;;;;;;;;;5017545;28;20054;-68
2022/09/18 09:32:06;;;;;;;0.43;0.43;;;;;;;;;;5022182;28;20045;-70
2022/09/18 09:34:39;;;;;;;5.10;0.50;;;;;;;;;;5015191;28;20061;-69
2022/09/18 09:37:13;;;;;;;0.22;0.22;;;;;;;;;;5017873;28;20057;-68
2022/09/18 09:39:46;;;;;;;0.30;0.30;;;;;;;;;;5018674;28;20045;-69
2022/09/18 09:42:17;;;;;;;0.10;0.10;;;;;;;;;;5011779;28;20056;-69
2022/09/18 09:44:48;;;;;;;0.20;0.20;;;;;;;;;;5017173;28;20050;-69
2022/09/18 09:47:23;;;;;;;0.13;0.13;;;;;;;;;;5019341;28;20501;-69
2022/09/18 09:50:01;;;;;;;0.40;0.20;;;;;;;;;;5020500;28;20046;-68
2022/09/18 09:52:30;;;;;;;0.80;0.40;;;;;;;;;;5024483;28;20382;-69
2022/09/18 09:55:01;;;;;;;0.30;0.20;;;;;;;;;;5019211;28;20112;-72
2022/09/18 09:57:32;;;;;;;0.40;0.35;;;;;;;;;;5021080;28;20074;-71
2022/09/18 10:00:07;;;;;;;0.38;0.30;;;;;;;;;;5019024;28;20099;-68
2022/09/18 10:02:45;;;;;;;0.10;0.10;;;;;;;;;;5018293;28;20436;-70
2022/09/18 10:05:18;;;;;;;0.17;0.17;;;;;;;;;;5013837;28;20041;-69
2022/09/18 10:07:49;;;;;;;0.80;0.30;;;;;;;;;;5020377;28;20041;-68
2022/09/18 10:10:18;;;;;;;0.32;0.20;;;;;;;;;;5012085;28;20052;-69
2022/09/18 10:12:52;;;;;;;0.08;0.08;;;;;;;;;;5014957;28;20384;-68
2022/09/18 10:15:21;;;;;;;1.35;0.22;;;;;;;;;;5016480;28;20050;-72
2022/09/18 10:17:52;;;;;;;0.28;0.28;;;;;;;;;;5017093;28;20050;-69
2022/09/18 10:20:25;;;;;;;7.13;0.68;;;;;;;;;;5018571;28;20663;-71
2022/09/18 10:22:54;;;;;;;0.05;0.05;;;;;;;;;;5019963;28;20045;-69
2022/09/18 10:25:27;;;;;;;0.08;0.08;;;;;;;;;;5016192;28;20544;-74
2022/09/18 10:27:55;;;;;;;0.25;0.25;;;;;;;;;;5024814;28;20519;-73
2022/09/18 10:30:23;;;;;;;0.22;0.22;;;;;;;;;;5019634;28;20068;-70
2022/09/18 10:32:53;;;;;;;0.05;0.05;;;;;;;;;;5020291;28;20053;-71
2022/09/18 10:35:43;;;;;;;0.20;0.20;;;;;;;;;;5012511;28;20532;-71
2022/09/18 10:38:27;;;;;;;0.15;0.15;;;;;;;;;;5015046;28;20418;-68
2022/09/18 10:40:57;;;;;;;0.10;0.10;;;;;;;;;;5015618;28;20071;-69
2022/09/18 10:43:26;;;;;;;0.30;0.30;;;;;;;;;;5024109;28;20061;-70
2022/09/18 10:45:55;;;;;;;0.28;0.20;;;;;;;;;;5019260;28;20065;-71
2022/09/18 10:48:26;;;;;;;0.43;0.22;;;;;;;;;;5023495;28;20061;-69
2022/09/18 10:50:59;;;;;;;0.10;0.10;;;;;;;;;;5022401;28;20073;-71
2022/09/18 10:53:31;;;;;;;0.30;0.30;;;;;;;;;;5017773;28;20053;-69
2022/09/18 10:56:03;;;;;;;0.10;0.10;;;;;;;;;;5014345;28;20065;-69
2022/09/18 10:58:33;;;;;;;0.43;0.20;;;;;;;;;;5018860;28;20095;-69
2022/09/18 11:01:03;;;;;;;0.25;0.20;;;;;;;;;;5014896;28;20055;-74
2022/09/18 11:03:38;;;;;;;0.17;0.17;;;;;;;;;;5017022;28;20468;-69
2022/09/18 11:06:09;;;;;;;0.40;0.40;;;;;;;;;;5015222;28;20568;-68
2022/09/18 11:08:41;;;;;;;0.85;0.25;;;;;;;;;;5015206;28;20049;-69
2022/09/18 11:11:12;;;;;;;1.27;0.63;;;;;;;;;;5021650;28;20068;-68
2022/09/18 11:13:43;;;;;;;1.17;0.47;;;;;;;;;;5020915;28;20075;-69
2022/09/18 11:16:22;;;;;;;0.08;0.08;;;;;;;;;;5018032;28;20045;-73
2022/09/18 11:19:02;;;;;;;2.92;0.63;;;;;;;;;;5016433;28;20087;-70
2022/09/18 11:21:42;;;;;;;0.10;0.10;;;;;;;;;;5019060;28;20140;-73
2022/09/18 11:24:16;;;;;;;0.15;0.15;;;;;;;;;;5022768;28;20425;-69
2022/09/18 11:26:49;;;;;;;1.95;0.20;;;;;;;;;;5024226;28;20489;-69
2022/09/18 11:29:20;;;;;;;0.20;0.20;;;;;;;;;;5016487;28;20041;-72
2022/09/18 11:31:50;;;;;;;1.00;0.20;;;;;;;;;;5014075;28;20046;-68
2022/09/18 11:34:25;;;;;;;3.92;0.13;;;;;;;;;;5013438;28;20042;-70
2022/09/18 11:36:55;;;;;;;0.00;0.00;;;;;;;;;;4996933;28;20725;-66
2022/09/18 11:39:26;;;;;;;0.40;0.35;;;;;;;;;;5022106;28;20060;-70
2022/09/18 11:41:55;;;;;;;0.32;0.32;;;;;;;;;;5015615;28;20063;-69
2022/09/18 11:44:25;;;;;;;0.40;0.40;;;;;;;;;;5019598;28;20050;-69
2022/09/18 11:47:08;;;;;;;0.38;0.28;;;;;;;;;;5020222;28;20236;-70
2022/09/18 11:50:00;;;;;;;0.10;0.10;;;;;;;;;;5015944;28;20117;-70
2022/09/18 11:52:31;;;;;;;0.20;0.20;;;;;;;;;;5021810;28;20057;-69
2022/09/18 11:55:03;;;;;;;0.35;0.20;;;;;;;;;;5020952;28;20048;-70
2022/09/18 11:57:36;;;;;;;0.20;0.20;;;;;;;;;;5025483;28;20408;-75
2022/09/18 12:00:07;;;;;;;7.43;0.25;;;;;;;;;;5023150;28;20053;-69
2022/09/18 12:02:40;;;;;;;0.08;0.05;;;;;;;;;;5022999;28;20055;-73
2022/09/18 12:05:16;;;;;;;0.10;0.10;;;;;;;;;;5023454;28;20060;-70
2022/09/18 12:07:49;;;;;;;0.20;0.20;;;;;;;;;;5021106;28;20041;-69
2022/09/18 12:10:20;;;;;;;0.20;0.20;;;;;;;;;;5020884;28;20437;-69
2022/09/18 12:12:50;;;;;;;0.10;0.10;;;;;;;;;;5024747;28;20051;-68
2022/09/18 12:15:21;;;;;;;0.08;0.08;;;;;;;;;;5019898;28;20042;-71
2022/09/18 12:17:53;;;;;;;0.20;0.20;;;;;;;;;;5015413;28;20050;-70
2022/09/18 12:20:24;;;;;;;0.17;0.15;;;;;;;;;;5021738;28;20128;-70
2022/09/18 12:22:55;;;;;;;0.25;0.25;;;;;;;;;;5023280;28;20050;-69
2022/09/18 12:25:27;;;;;;;0.10;0.10;;;;;;;;;;5008208;28;20128;-70
2022/09/18 12:28:00;;;;;;;0.20;0.20;;;;;;;;;;5018515;28;20056;-69
2022/09/18 12:30:37;;;;;;;0.10;0.10;;;;;;;;;;5012470;28;20050;-71
2022/09/18 12:33:09;;;;;;;1.20;1.00;;;;;;;;;;5023625;28;20041;-70
2022/09/18 12:35:46;;;;;;;0.10;0.10;;;;;;;;;;5026277;28;20049;-69
2022/09/18 12:38:20;;;;;;;0.10;0.10;;;;;;;;;;5020049;28;20045;-69
2022/09/18 12:40:58;;;;;;;0.10;0.10;;;;;;;;;;5025886;28;20041;-72
2022/09/18 12:43:47;;;;;;;0.10;0.10;;;;;;;;;;5024234;28;20064;-69
2022/09/18 12:46:29;;;;;;;0.10;0.10;;;;;;;;;;5023364;28;20052;-74
2022/09/18 12:49:02;;;;;;;0.10;0.10;;;;;;;;;;5022348;28;20141;-70
2022/09/18 12:51:40;;;;;;;0.15;0.15;;;;;;;;;;5023994;28;20049;-70
2022/09/18 12:54:18;;;;;;;0.55;0.20;;;;;;;;;;5021478;28;20136;-69
2022/09/18 12:56:56;;;;;;;0.35;0.20;;;;;;;;;;5022123;28;20057;-72
2022/09/18 12:59:33;;;;;;;0.10;0.10;;;;;;;;;;5019098;28;20204;-73
2022/09/18 13:02:05;;;;;;;0.20;0.20;;;;;;;;;;5018683;28;20046;-69
2022/09/18 13:04:36;;;;;;;0.10;0.10;;;;;;;;;;5029484;28;20481;-69
2022/09/18 13:07:06;;;;;;;0.20;0.20;;;;;;;;;;5027256;28;20045;-70
2022/09/18 13:09:40;;;;;;;0.28;0.15;;;;;;;;;;5015923;28;20050;-71
2022/09/18 13:12:12;;;;;;;0.65;0.30;;;;;;;;;;5023397;28;20046;-71
2022/09/18 13:14:42;;;;;;;0.30;0.30;;;;;;;;;;5021401;28;20053;-69
2022/09/18 13:17:13;;;;;;;0.60;0.35;;;;;;;;;;5024861;28;20042;-69
2022/09/18 13:19:44;;;;;;;0.73;0.38;;;;;;;;;;5027034;28;20132;-71
2022/09/18 13:22:13;;;;;;;0.30;0.30;;;;;;;;;;5026261;28;20060;-71
2022/09/18 13:24:44;;;;;;;0.30;0.30;;;;;;;;;;5021425;28;20406;-66
2022/09/18 13:27:14;;;;;;;0.30;0.17;;;;;;;;;;5015736;28;20541;-78
2022/09/18 13:29:47;;;;;;;1.27;0.15;;;;;;;;;;5024663;28;20493;-78
2022/09/18 13:32:18;;;;;;;0.10;0.10;;;;;;;;;;5030549;28;20400;-78
2022/09/18 13:34:50;;;;;;;0.30;0.22;;;;;;;;;;5026263;28;20395;-77
2022/09/18 13:37:21;;;;;;;0.10;0.10;;;;;;;;;;5019833;28;20057;-77
2022/09/18 13:39:52;;;;;;;0.30;0.28;;;;;;;;;;5021260;28;20067;-74
2022/09/18 13:42:38;;;;;;;0.28;0.28;;;;;;;;;;5027458;28;20421;-74
2022/09/18 13:45:14;;;;;;;0.10;0.10;;;;;;;;;;5023016;28;20053;-76
2022/09/18 13:47:59;;;;;;;1.48;0.32;;;;;;;;;;5023865;28;20055;-77
2022/09/18 13:50:29;;;;;;;;;;;;;;;;;;5020505;28;20136;-72
2022/09/18 13:52:57;;;;;;;3.50;0.55;;;;;;;;;;5016315;28;20429;-74
2022/09/18 13:55:36;;;;;;;0.00;0.00;;;;;;;;;;5018240;28;20049;-74
2022/09/18 13:58:32;;;;;;;0.05;0.05;;;;;;;;;;5021802;28;20049;-72
2022/09/18 14:01:00;;;;;;;;;;;;;;;;;;4973459;28;20046;-72
2022/09/18 14:03:39;;;;;;;0.40;0.30;;;;;;;;;;5020676;28;20461;-72
2022/09/18 14:06:26;;;;;;;0.10;0.10;;;;;;;;;;5019762;28;20061;-74
2022/09/18 14:08:54;;;;;;;0.85;0.10;;;;;;;;;;5028926;28;20491;-72
2022/09/18 14:11:25;;;;;;;0.45;0.40;;;;;;;;;;5014015;28;20058;-77
2022/09/18 14:13:54;;;;;;;5.78;0.88;;;;;;;;;;5020813;28;20038;-75
2022/09/18 14:16:27;;;;;;;1.35;0.30;;;;;;;;;;5030245;28;20080;-74
2022/09/18 14:19:01;;;;;;;0.20;0.20;;;;;;;;;;5024498;28;20057;-76
2022/09/18 14:21:31;;;;;;;0.20;0.20;;;;;;;;;;5019853;28;20056;-73
2022/09/18 14:24:04;;;;;;;0.10;0.10;;;;;;;;;;5024622;28;20562;-74
2022/09/18 14:26:56;;;;;;;1.08;0.43;;;;;;;;;;5022554;28;20050;-75
2022/09/18 14:29:27;;;;;;;0.63;0.20;;;;;;;;;;5020000;28;20073;-71
2022/09/18 14:31:56;;;;;;;0.13;0.13;;;;;;;;;;5019753;28;20057;-73
2022/09/18 14:34:26;;;;;;;0.40;0.30;;;;;;;;;;5021215;28;20436;-74
2022/09/18 14:36:57;;;;;;;0.17;0.05;;;;;;;;;;5016855;28;20049;-78
2022/09/18 14:39:27;;;;;;;0.40;0.25;;;;;;;;;;5027407;28;20371;-74
2022/09/18 14:41:58;;;;;;;0.00;0.00;;;;;;;;;;5030688;28;20054;-75
2022/09/18 14:44:27;;;;;;;0.50;0.20;;;;;;;;;;5023478;28;20055;-73
2022/09/18 14:47:02;;;;;;;0.00;0.00;;;;;;;;;;5026625;28;20041;-76
2022/09/18 14:49:33;;;;;;;0.40;0.28;;;;;;;;;;5029429;28;20453;-77
2022/09/18 14:52:02;;;;;;;0.47;0.47;;;;;;;;;;5024010;28;20053;-74
2022/09/18 14:54:32;;;;;;;0.10;0.10;;;;;;;;;;5027339;28;20410;-75
2022/09/18 14:57:03;;;;;;;0.15;0.15;;;;;;;;;;5025569;28;20489;-74
2022/09/18 14:59:33;;;;;;;1.35;0.17;;;;;;;;;;5019101;28;20042;-76
2022/09/18 15:02:14;;;;;;;0.10;0.10;;;;;;;;;;5016001;28;20053;-76
2022/09/18 15:04:43;;;;;;;0.13;0.13;;;;;;;;;;5021863;28;20053;-75
2022/09/18 15:07:16;;;;;;;2.05;0.30;;;;;;;;;;5024102;28;20045;-77